createdAt,value
2018-03-24T00:00:15.086Z,18.10
2018-03-24T00:02:42.573Z,16.70
2018-03-24T00:05:10.070Z,16.23
2018-03-24T00:07:37.532Z,17.13
2018-03-24T00:10:05.018Z,16.73
2018-03-24T00:12:32.518Z,16.77
2018-03-24T00:15:00.026Z,18.03
2018-03-24T00:17:27.515Z,18.13
2018-03-24T00:19:54.991Z,19.67
2018-03-24T00:22:22.512Z,18.50
2018-03-24T00:24:50.016Z,20.97
2018-03-24T00:27:17.494Z,19.63
2018-03-24T00:29:44.983Z,20.80
2018-03-24T00:32:12.470Z,19.37
2018-03-24T00:34:39.950Z,22.47
2018-03-24T00:37:07.526Z,21.10
2018-03-24T00:39:35.020Z,25.00
2018-03-24T00:42:03.649Z,21.60
2018-03-24T00:44:31.225Z,21.63
2018-03-24T00:46:58.740Z,23.47
2018-03-24T00:49:26.202Z,21.97
2018-03-24T00:51:53.975Z,26.00
2018-03-24T00:54:21.428Z,23.47
2018-03-24T00:56:48.883Z,22.27
2018-03-24T00:59:16.344Z,22.23
2018-03-24T01:01:43.800Z,22.33
2018-03-24T01:04:11.422Z,22.23
2018-03-24T01:06:38.924Z,25.50
2018-03-24T01:09:06.494Z,21.43
2018-03-24T01:11:34.009Z,25.77
2018-03-24T01:14:01.460Z,22.37
2018-03-24T01:16:29.034Z,24.73
2018-03-24T01:18:56.472Z,23.97
2018-03-24T01:21:23.964Z,22.03
2018-03-24T01:23:51.469Z,23.80
2018-03-24T01:26:18.967Z,25.37
2018-03-24T01:28:46.445Z,23.93
2018-03-24T01:31:13.977Z,23.87
2018-03-24T01:33:41.455Z,24.87
2018-03-24T01:36:08.991Z,23.50
2018-03-24T01:38:36.447Z,23.60
2018-03-24T01:41:03.955Z,24.33
2018-03-24T01:43:31.466Z,24.97
2018-03-24T01:45:59.864Z,27.43
2018-03-24T01:48:29.064Z,25.00
2018-03-24T01:50:56.503Z,25.37
2018-03-24T01:53:24.923Z,24.07
2018-03-24T01:55:52.435Z,26.27
2018-03-24T01:58:19.901Z,25.67
2018-03-24T02:00:47.466Z,28.23
2018-03-24T02:03:14.932Z,25.50
2018-03-24T02:05:42.421Z,25.80
2018-03-24T02:08:09.963Z,28.50
2018-03-24T02:10:37.427Z,25.30
2018-03-24T02:13:04.970Z,28.40
2018-03-24T02:15:32.431Z,26.27
2018-03-24T02:17:59.911Z,26.27
2018-03-24T02:20:27.395Z,25.57
2018-03-24T02:22:54.919Z,28.50
2018-03-24T02:25:22.395Z,25.77
2018-03-24T02:27:49.891Z,24.67
2018-03-24T02:30:17.370Z,24.97
2018-03-24T02:32:44.885Z,28.87
2018-03-24T02:35:12.360Z,23.60
2018-03-24T02:37:39.863Z,24.57
2018-03-24T02:40:07.351Z,22.97
2018-03-24T02:42:34.841Z,24.53
2018-03-24T02:45:02.321Z,26.07
2018-03-24T02:47:29.831Z,23.77
2018-03-24T02:49:57.303Z,24.37
2018-03-24T02:52:24.809Z,23.57
2018-03-24T02:54:52.274Z,23.10
2018-03-24T02:57:19.733Z,24.33
2018-03-24T02:59:47.224Z,23.93
2018-03-24T03:02:14.683Z,23.67
2018-03-24T03:04:42.146Z,23.87
2018-03-24T03:07:09.662Z,27.17
2018-03-24T03:09:37.168Z,24.73
2018-03-24T03:12:04.625Z,23.60
2018-03-24T03:14:32.080Z,25.07
2018-03-24T03:16:59.571Z,25.10
2018-03-24T03:19:27.049Z,27.10
2018-03-24T03:21:54.527Z,23.60
2018-03-24T03:24:22.045Z,27.07
2018-03-24T03:26:49.520Z,22.93
2018-03-24T03:29:22.049Z,24.37
2018-03-24T03:34:55.930Z,26.20
2018-03-24T03:37:23.445Z,23.40
2018-03-24T03:39:50.889Z,24.70
2018-03-24T03:42:18.361Z,24.37
2018-03-24T03:44:45.844Z,23.33
2018-03-24T03:47:13.664Z,24.37
2018-03-24T03:49:41.204Z,23.97
2018-03-24T03:52:08.721Z,26.33
2018-03-24T03:54:36.289Z,25.23
2018-03-24T03:57:03.738Z,24.73
2018-03-24T03:59:31.223Z,25.83
2018-03-24T04:01:58.719Z,24.83
2018-03-24T04:04:26.203Z,25.50
2018-03-24T04:06:53.688Z,25.57
2018-03-24T04:09:21.155Z,25.00
2018-03-24T04:11:48.660Z,26.60
2018-03-24T04:14:16.154Z,30.33
2018-03-24T04:16:44.623Z,26.87
2018-03-24T04:19:12.711Z,25.47
2018-03-24T04:21:40.200Z,25.17
2018-03-24T04:24:07.708Z,26.03
2018-03-24T04:26:35.154Z,26.70
2018-03-24T04:29:02.745Z,25.20
2018-03-24T04:31:31.535Z,24.73
2018-03-24T04:33:59.621Z,25.60
2018-03-24T04:36:27.447Z,25.43
2018-03-24T04:38:54.955Z,29.90
2018-03-24T04:41:22.614Z,25.13
2018-03-24T04:43:50.310Z,26.53
2018-03-24T04:46:18.760Z,27.10
2018-03-24T04:48:46.395Z,27.47
2018-03-24T04:51:14.057Z,27.37
2018-03-24T04:53:42.207Z,27.30
2018-03-24T04:56:09.893Z,29.73
2018-03-24T04:58:37.652Z,27.23
2018-03-24T05:01:05.189Z,27.60
2018-03-24T05:03:32.826Z,27.80
2018-03-24T05:06:00.330Z,25.90
2018-03-24T05:08:28.291Z,29.60
2018-03-24T05:10:55.978Z,26.83
2018-03-24T05:13:23.593Z,30.17
2018-03-24T05:15:51.268Z,26.70
2018-03-24T05:18:18.878Z,26.30
2018-03-24T05:20:46.514Z,27.73
2018-03-24T05:23:14.026Z,26.63
2018-03-24T05:25:41.516Z,27.87
2018-03-24T05:28:09.018Z,27.10
2018-03-24T05:30:36.652Z,26.10
2018-03-24T05:33:04.362Z,30.53
2018-03-24T05:35:31.910Z,25.83
2018-03-24T05:37:59.531Z,27.80
2018-03-24T05:40:27.162Z,28.87
2018-03-24T05:42:54.802Z,26.30
2018-03-24T05:45:23.168Z,25.70
2018-03-24T05:47:50.793Z,25.07
2018-03-24T05:50:18.422Z,25.77
2018-03-24T05:52:45.941Z,27.23
2018-03-24T05:55:13.520Z,27.73
2018-03-24T05:57:41.058Z,26.03
2018-03-24T06:00:08.805Z,26.73
2018-03-24T06:02:36.296Z,26.13
2018-03-24T06:05:03.808Z,25.50
2018-03-24T06:07:31.317Z,25.13
2018-03-24T06:09:58.828Z,24.83
2018-03-24T06:12:26.328Z,26.13
2018-03-24T06:14:53.847Z,26.90
2018-03-24T06:17:21.322Z,26.97
2018-03-24T06:19:48.881Z,27.87
2018-03-24T06:22:16.640Z,27.10
2018-03-24T06:24:44.156Z,29.13
2018-03-24T06:27:12.288Z,27.43
2018-03-24T06:29:39.766Z,27.20
2018-03-24T06:32:07.236Z,27.17
2018-03-24T06:34:34.708Z,26.27
2018-03-24T06:37:18.004Z,27.50
2018-03-24T06:39:45.560Z,26.77
2018-03-24T06:42:13.040Z,26.60
2018-03-24T06:44:41.480Z,28.13
2018-03-24T06:47:08.965Z,28.37
2018-03-24T06:49:36.420Z,27.50
2018-03-24T06:52:03.983Z,25.70
2018-03-24T06:54:31.440Z,27.20
2018-03-24T06:56:59.039Z,26.60
2018-03-24T06:59:26.497Z,26.70
2018-03-24T07:01:54.005Z,28.23
2018-03-24T07:04:21.491Z,29.63
2018-03-24T07:06:48.988Z,27.33
2018-03-24T07:09:16.498Z,28.27
2018-03-24T07:11:44.014Z,27.07
2018-03-24T07:14:11.504Z,30.97
2018-03-24T07:16:39.030Z,28.67
2018-03-24T07:19:06.546Z,27.27
2018-03-24T07:21:34.002Z,28.23
2018-03-24T07:24:01.466Z,32.10
2018-03-24T07:26:28.938Z,29.23
2018-03-24T07:28:56.449Z,28.57
2018-03-24T07:31:23.906Z,27.53
2018-03-24T07:33:51.464Z,26.90
2018-03-24T07:36:18.939Z,29.20
2018-03-24T07:38:46.442Z,32.00
2018-03-24T07:41:13.925Z,27.00
2018-03-24T07:43:41.355Z,32.13
2018-03-24T07:46:08.858Z,28.13
2018-03-24T07:48:36.365Z,29.47
2018-03-24T07:51:04.352Z,31.93
2018-03-24T07:53:31.861Z,28.37
2018-03-24T07:55:59.335Z,29.07
2018-03-24T07:58:26.835Z,33.60
2018-03-24T08:00:55.045Z,29.00
2018-03-24T08:03:22.546Z,28.90
2018-03-24T08:05:50.130Z,29.00
2018-03-24T08:08:17.666Z,29.37
2018-03-24T08:10:45.909Z,29.27
2018-03-24T08:13:13.414Z,26.73
2018-03-24T08:15:40.923Z,28.07
2018-03-24T08:18:08.412Z,28.53
2018-03-24T08:20:35.868Z,29.23
2018-03-24T08:23:03.377Z,29.07
2018-03-24T08:25:30.949Z,27.70
2018-03-24T08:27:58.420Z,28.40
2018-03-24T08:30:26.369Z,28.77
2018-03-24T08:32:53.792Z,29.37
2018-03-24T08:35:21.340Z,29.63
2018-03-24T08:37:48.880Z,28.03
2018-03-24T08:40:16.376Z,29.50
2018-03-24T08:42:44.096Z,28.47
2018-03-24T08:45:11.575Z,28.50
2018-03-24T08:47:39.066Z,28.33
2018-03-24T08:50:06.635Z,26.47
2018-03-24T08:52:34.931Z,28.47
2018-03-24T08:55:02.399Z,29.90
2018-03-24T08:57:29.950Z,25.43
2018-03-24T09:00:02.574Z,27.77
2018-03-24T09:02:30.091Z,25.67
2018-03-24T09:04:57.568Z,24.47
2018-03-24T09:07:25.069Z,25.00
2018-03-24T09:09:52.543Z,23.53
2018-03-24T09:12:20.018Z,24.97
2018-03-24T09:14:47.523Z,25.57
2018-03-24T09:17:14.998Z,22.90
2018-03-24T09:19:42.494Z,22.97
2018-03-24T09:22:10.054Z,23.30
2018-03-24T09:24:37.534Z,23.20
2018-03-24T09:27:05.104Z,23.23
2018-03-24T09:29:32.604Z,24.80
2018-03-24T09:32:00.086Z,24.63
2018-03-24T09:34:27.583Z,23.37
2018-03-24T09:36:55.063Z,23.97
2018-03-24T09:39:22.551Z,24.03
2018-03-24T09:41:50.023Z,25.20
2018-03-24T09:44:17.831Z,25.27
2018-03-24T09:46:45.325Z,23.43
2018-03-24T09:49:12.883Z,22.70
2018-03-24T09:51:40.403Z,22.73
2018-03-24T09:54:07.946Z,23.00
2018-03-24T09:56:35.426Z,23.30
2018-03-24T09:59:02.914Z,23.07
2018-03-24T10:01:30.386Z,23.07
2018-03-24T10:03:57.853Z,22.43
2018-03-24T10:06:25.397Z,19.93
2018-03-24T10:09:07.137Z,20.47
2018-03-24T10:11:34.633Z,19.60
2018-03-24T10:14:02.109Z,18.00
2018-03-24T10:16:29.655Z,17.37
2018-03-24T10:18:57.162Z,15.43
2018-03-24T10:24:29.959Z,14.67
2018-03-24T10:26:57.473Z,12.53
2018-03-24T10:29:25.205Z,13.03
2018-03-24T10:31:52.669Z,12.23
2018-03-24T10:34:20.145Z,11.60
2018-03-24T10:36:47.599Z,11.70
2018-03-24T10:39:15.147Z,12.03
2018-03-24T10:41:42.675Z,12.30
2018-03-24T10:44:10.151Z,12.37
2018-03-24T10:46:37.908Z,11.15
2018-03-24T10:49:05.455Z,11.77
2018-03-24T10:51:32.987Z,11.27
2018-03-24T10:54:00.489Z,11.10
2018-03-24T10:56:27.963Z,9.77
2018-03-24T10:59:10.402Z,10.50
2018-03-24T11:01:37.885Z,10.85
2018-03-24T11:04:05.404Z,11.60
2018-03-24T11:06:32.883Z,11.95
2018-03-24T11:09:19.604Z,11.05
2018-03-24T11:11:47.137Z,10.77
2018-03-24T11:14:14.654Z,11.65
2018-03-24T11:16:42.115Z,10.60
2018-03-24T11:19:09.602Z,9.48
2018-03-24T11:21:37.082Z,9.82
2018-03-24T11:24:04.649Z,10.65
2018-03-24T11:26:32.123Z,9.93
2018-03-24T11:28:59.585Z,10.15
2018-03-24T11:31:27.100Z,10.57
2018-03-24T11:33:54.565Z,9.75
2018-03-24T11:36:22.042Z,9.82
2018-03-24T11:38:59.133Z,9.30
2018-03-24T11:41:26.964Z,9.50
2018-03-24T11:43:54.493Z,9.57
2018-03-24T11:46:22.016Z,10.50
2018-03-24T11:48:49.569Z,9.90
2018-03-24T11:51:17.032Z,11.23
2018-03-24T11:53:46.348Z,10.60
2018-03-24T11:56:15.638Z,10.40
2018-03-24T11:58:43.375Z,10.47
2018-03-24T12:01:11.592Z,10.40
2018-03-24T12:03:39.866Z,12.03
2018-03-24T12:06:07.357Z,11.87
2018-03-24T12:08:34.855Z,9.93
2018-03-24T12:11:02.388Z,9.93
2018-03-24T12:13:29.906Z,11.03
2018-03-24T12:15:57.465Z,11.03
2018-03-24T12:18:25.313Z,11.13
2018-03-24T12:20:52.786Z,10.63
2018-03-24T12:23:20.323Z,10.43
2018-03-24T12:25:47.801Z,11.87
2018-03-24T12:28:15.299Z,10.50
2018-03-24T12:30:42.800Z,11.00
2018-03-24T12:33:10.291Z,10.67
2018-03-24T12:35:37.769Z,10.43
2018-03-24T12:38:05.301Z,10.30
2018-03-24T12:40:47.147Z,10.33
2018-03-24T12:43:14.622Z,10.23
2018-03-24T12:45:42.098Z,10.10
2018-03-24T12:48:10.186Z,9.97
2018-03-24T12:50:37.701Z,11.37
2018-03-24T12:53:07.497Z,11.23
2018-03-24T12:55:35.038Z,9.70
2018-03-24T12:58:03.399Z,10.13
2018-03-24T13:00:35.896Z,10.23
2018-03-24T13:03:03.419Z,10.18
2018-03-24T13:05:30.910Z,10.23
2018-03-24T13:07:58.432Z,10.80
2018-03-24T13:10:30.948Z,10.07
2018-03-24T13:12:58.548Z,10.55
2018-03-24T13:15:26.020Z,10.13
2018-03-24T13:17:53.598Z,10.23
2018-03-24T13:20:26.022Z,10.70
2018-03-24T13:22:53.531Z,10.02
2018-03-24T13:25:21.032Z,8.95
2018-03-24T13:27:48.710Z,11.12
2018-03-24T13:30:16.296Z,10.65
2018-03-24T13:32:43.822Z,10.32
2018-03-24T13:35:11.358Z,9.98
2018-03-24T13:37:38.918Z,11.50
2018-03-24T13:40:06.389Z,10.40
2018-03-24T13:42:33.890Z,10.65
2018-03-24T13:45:01.450Z,10.80
2018-03-24T13:47:29.040Z,11.75
2018-03-24T13:58:33.808Z,11.25
2018-03-24T14:01:01.452Z,10.52
2018-03-24T14:03:29.013Z,11.77
2018-03-24T14:05:56.720Z,10.52
2018-03-24T14:08:24.283Z,12.25
2018-03-24T14:10:51.809Z,11.95
2018-03-24T14:13:19.410Z,11.38
2018-03-24T14:15:47.024Z,12.13
2018-03-24T14:18:14.531Z,11.77
2018-03-24T14:20:42.121Z,11.82
2018-03-24T14:23:09.760Z,11.70
2018-03-24T14:25:37.306Z,11.73
2018-03-24T14:28:04.968Z,11.20
2018-03-24T14:30:32.664Z,11.43
2018-03-24T14:33:00.210Z,11.07
2018-03-24T14:35:27.739Z,11.90
2018-03-24T14:37:55.222Z,12.13
2018-03-24T14:40:22.792Z,12.95
2018-03-24T14:42:50.300Z,12.73
2018-03-24T14:45:17.774Z,13.15
2018-03-24T14:47:45.234Z,13.23
2018-03-24T14:50:12.764Z,13.53
2018-03-24T14:52:40.491Z,14.13
2018-03-24T14:55:07.952Z,13.17
2018-03-24T14:57:35.443Z,13.30
2018-03-24T15:00:03.198Z,14.03
2018-03-24T15:02:30.700Z,14.57
2018-03-24T15:04:58.254Z,14.23
2018-03-24T15:07:25.712Z,14.07
2018-03-24T15:09:53.216Z,13.83
2018-03-24T15:12:20.824Z,13.60
2018-03-24T15:14:48.330Z,13.80
2018-03-24T15:17:15.865Z,14.57
2018-03-24T15:19:43.424Z,13.93
2018-03-24T15:22:10.992Z,14.47
2018-03-24T15:24:38.538Z,14.43
2018-03-24T15:27:06.138Z,13.13
2018-03-24T15:29:49.205Z,13.57
2018-03-24T15:32:28.658Z,13.00
2018-03-24T15:35:07.978Z,12.60
2018-03-24T15:37:35.509Z,13.03
2018-03-24T15:40:02.966Z,12.60
2018-03-24T15:42:30.430Z,13.03
2018-03-24T15:44:57.922Z,14.80
2018-03-24T15:47:25.401Z,14.73
2018-03-24T15:49:53.734Z,14.47
2018-03-24T15:52:21.214Z,14.13
2018-03-24T15:54:48.764Z,14.73
2018-03-24T15:57:16.263Z,14.33
2018-03-24T15:59:43.754Z,15.60
2018-03-24T16:02:11.274Z,14.37
2018-03-24T16:04:38.773Z,14.67
2018-03-24T16:07:06.299Z,15.47
2018-03-24T16:09:33.868Z,14.20
2018-03-24T16:12:01.415Z,14.10
2018-03-24T16:14:28.877Z,14.13
2018-03-24T16:16:56.321Z,14.80
2018-03-24T16:19:33.478Z,15.33
2018-03-24T16:22:01.005Z,14.50
2018-03-24T16:24:28.503Z,13.83
2018-03-24T16:26:56.088Z,13.63
2018-03-24T16:29:23.750Z,14.47
2018-03-24T16:31:51.248Z,14.30
2018-03-24T16:34:18.740Z,15.23
2018-03-24T16:36:46.366Z,13.67
2018-03-24T16:39:13.854Z,14.60
2018-03-24T16:41:41.340Z,16.20
2018-03-24T16:44:08.930Z,15.83
2018-03-24T16:46:36.428Z,17.00
2018-03-24T16:49:04.002Z,15.63
2018-03-24T16:51:31.616Z,14.93
2018-03-24T16:54:00.128Z,16.57
2018-03-24T16:56:27.708Z,16.37
2018-03-24T16:58:55.176Z,16.17
2018-03-24T17:01:22.622Z,17.00
2018-03-24T17:03:50.198Z,16.83
2018-03-24T17:06:17.674Z,16.90
2018-03-24T17:08:45.265Z,17.90
2018-03-24T17:11:12.760Z,15.57
2018-03-24T17:13:40.531Z,16.10
2018-03-24T17:16:08.111Z,15.90
2018-03-24T17:18:35.719Z,15.70
2018-03-24T17:21:03.222Z,16.27
2018-03-24T17:23:32.122Z,14.60
2018-03-24T17:25:59.655Z,14.70
2018-03-24T17:28:27.264Z,14.17
2018-03-24T17:30:54.809Z,14.53
2018-03-24T17:33:22.330Z,13.90
2018-03-24T17:35:49.928Z,14.77
2018-03-24T17:38:19.042Z,13.83
2018-03-24T17:40:46.732Z,13.77
2018-03-24T17:43:14.182Z,14.43
2018-03-24T17:45:41.674Z,15.13
2018-03-24T17:48:09.120Z,14.73
2018-03-24T17:50:46.386Z,16.33
2018-03-24T17:53:14.022Z,15.03
2018-03-24T17:55:41.667Z,15.23
2018-03-24T17:58:09.102Z,18.67
2018-03-24T18:00:36.574Z,20.83
2018-03-24T18:03:04.144Z,21.63
2018-03-24T18:05:31.680Z,22.83
2018-03-24T18:07:59.203Z,24.17
2018-03-24T18:10:26.752Z,24.13
2018-03-24T18:12:54.258Z,24.80
2018-03-24T18:15:21.790Z,24.93
2018-03-24T18:17:49.319Z,25.63
2018-03-24T18:20:16.844Z,25.63
2018-03-24T18:22:44.357Z,26.53
2018-03-24T18:25:11.830Z,25.67
2018-03-24T18:27:39.324Z,26.27
2018-03-24T18:30:06.839Z,27.97
2018-03-24T18:32:34.308Z,28.50
2018-03-24T18:35:01.852Z,28.43
2018-03-24T18:37:29.328Z,28.20
2018-03-24T18:40:01.792Z,27.87
2018-03-24T18:42:29.288Z,29.77
2018-03-24T18:44:57.016Z,28.50
2018-03-24T18:47:24.557Z,28.40
2018-03-24T18:49:52.107Z,28.67
2018-03-24T18:52:19.739Z,29.90
2018-03-24T18:54:47.436Z,28.13
2018-03-24T18:57:15.068Z,29.10
2018-03-24T18:59:42.668Z,28.57
2018-03-24T19:02:11.145Z,29.83
2018-03-24T19:04:38.619Z,28.57
2018-03-24T19:07:06.336Z,27.97
2018-03-24T19:09:33.905Z,29.67
2018-03-24T19:12:01.582Z,29.00
2018-03-24T19:14:29.150Z,28.50
2018-03-24T19:16:56.681Z,28.87
2018-03-24T19:19:24.156Z,29.43
2018-03-24T19:21:51.689Z,29.03
2018-03-24T19:24:19.154Z,30.97
2018-03-24T19:26:46.602Z,29.77
2018-03-24T19:29:14.135Z,29.00
2018-03-24T19:31:41.657Z,29.23
2018-03-24T19:34:09.175Z,28.87
2018-03-24T19:36:36.773Z,29.27
2018-03-24T19:39:04.281Z,29.30
2018-03-24T19:41:31.802Z,29.50
2018-03-24T19:43:59.329Z,28.67
2018-03-24T19:46:26.814Z,29.93
2018-03-24T19:48:54.298Z,28.80
2018-03-24T19:51:21.794Z,29.07
2018-03-24T19:53:49.335Z,30.83
2018-03-24T19:56:16.834Z,28.40
2018-03-24T19:58:44.346Z,29.83
2018-03-24T20:01:11.896Z,29.07
2018-03-24T20:03:39.423Z,29.43
2018-03-24T20:06:06.980Z,28.87
2018-03-24T20:08:34.503Z,27.70
2018-03-24T20:11:07.197Z,27.70
2018-03-24T20:13:34.695Z,27.97
2018-03-24T20:16:02.201Z,27.33
2018-03-24T20:18:29.807Z,27.63
2018-03-24T20:20:58.139Z,25.80
2018-03-24T20:23:25.679Z,25.93
2018-03-24T20:25:53.182Z,27.07
2018-03-24T20:28:20.722Z,26.43
2018-03-24T20:30:48.234Z,24.93
2018-03-24T20:33:15.685Z,26.77
2018-03-24T20:35:43.241Z,26.30
2018-03-24T20:38:10.871Z,27.03
2018-03-24T20:40:39.219Z,26.37
2018-03-24T20:43:07.280Z,25.33
2018-03-24T20:45:34.763Z,25.23
2018-03-24T20:48:02.311Z,25.27
2018-03-24T20:50:29.825Z,26.13
2018-03-24T20:52:57.369Z,23.27
2018-03-24T20:55:25.032Z,24.13
2018-03-24T20:57:52.506Z,24.13
2018-03-24T21:00:20.105Z,25.07
2018-03-24T21:02:47.631Z,23.43
2018-03-24T21:05:15.139Z,24.13
2018-03-24T21:07:42.683Z,24.83
2018-03-24T21:10:10.163Z,25.67
2018-03-24T21:12:38.173Z,24.23
2018-03-24T21:15:06.081Z,24.80
2018-03-24T21:17:33.549Z,24.30
2018-03-24T21:20:01.155Z,24.53
2018-03-24T21:22:28.609Z,24.47
2018-03-24T21:24:56.137Z,23.80
2018-03-24T21:27:23.677Z,24.17
2018-03-24T21:29:51.189Z,24.00
2018-03-24T21:32:18.670Z,24.60
2018-03-24T21:34:46.121Z,24.43
2018-03-24T21:37:13.562Z,24.83
2018-03-24T21:39:46.111Z,23.70
2018-03-24T21:42:13.611Z,24.70
2018-03-24T21:44:41.107Z,24.83
2018-03-24T21:47:09.540Z,25.67
2018-03-24T21:49:37.109Z,23.17
2018-03-24T21:52:04.593Z,22.23
2018-03-24T21:54:32.206Z,24.67
2018-03-24T21:56:59.684Z,25.20
2018-03-24T21:59:27.187Z,23.63
2018-03-24T22:01:54.773Z,23.60
2018-03-24T22:04:22.352Z,24.63
2018-03-24T22:06:49.834Z,24.27
2018-03-24T22:09:17.316Z,24.80
2018-03-24T22:11:44.809Z,25.17
2018-03-24T22:14:12.749Z,23.97
2018-03-24T22:16:40.259Z,23.40
2018-03-24T22:19:07.705Z,24.43
2018-03-24T22:21:35.222Z,22.57
2018-03-24T22:24:02.701Z,24.20
2018-03-24T22:26:30.197Z,23.63
2018-03-24T22:28:57.717Z,23.27
2018-03-24T22:31:25.215Z,24.20
2018-03-24T22:33:52.713Z,22.83
2018-03-24T22:36:20.322Z,23.30
2018-03-24T22:38:47.834Z,24.27
2018-03-24T22:41:15.338Z,23.27
2018-03-24T22:43:42.812Z,22.87
2018-03-24T22:46:10.328Z,22.80
2018-03-24T22:48:37.800Z,24.13
2018-03-24T22:51:05.304Z,22.63
2018-03-24T22:53:32.778Z,23.63
2018-03-24T22:56:00.283Z,24.23
2018-03-24T22:58:27.766Z,23.07
2018-03-24T23:00:55.303Z,22.43
2018-03-24T23:03:22.781Z,24.10
2018-03-24T23:05:50.342Z,23.43
2018-03-24T23:08:17.815Z,24.10
2018-03-24T23:10:45.305Z,22.77
2018-03-24T23:13:13.758Z,23.00
2018-03-24T23:15:41.366Z,24.37
2018-03-24T23:18:08.889Z,22.83
2018-03-24T23:20:36.338Z,23.57
2018-03-24T23:23:03.949Z,23.67
2018-03-24T23:25:31.432Z,23.50
2018-03-24T23:27:59.049Z,24.17
2018-03-24T23:30:26.500Z,23.47
2018-03-24T23:32:53.979Z,23.93
2018-03-24T23:35:21.538Z,23.83
2018-03-24T23:37:49.026Z,23.03
2018-03-24T23:40:16.493Z,22.87
2018-03-24T23:42:44.030Z,23.27
2018-03-24T23:45:11.510Z,22.90
2018-03-24T23:47:38.978Z,23.03
2018-03-24T23:50:06.497Z,23.63
2018-03-24T23:52:34.054Z,24.43
2018-03-24T23:55:01.538Z,22.67
2018-03-24T23:57:29.075Z,24.27
2018-03-24T23:59:56.556Z,23.77
